sensor_id;sensor_type;location;lat;lon;timestamp;temperature;humidity
55719;DHT22;41623;46.104;19.656;2023-07-13T00:00:26;743.30;1305.60
55719;DHT22;41623;46.104;19.656;2023-07-13T00:02:51;743.30;1305.60
55719;DHT22;41623;46.104;19.656;2023-07-13T00:05:21;743.30;1305.60
55719;DHT22;41623;46.104;19.656;2023-07-13T00:07:47;743.30;1305.60
55719;DHT22;41623;46.104;19.656;2023-07-13T00:10:14;743.30;1305.60
55719;DHT22;41623;46.104;19.656;2023-07-13T00:12:40;743.30;1305.60
55719;DHT22;41623;46.104;19.656;2023-07-13T00:15:12;743.30;1305.60
55719;DHT22;41623;46.104;19.656;2023-07-13T00:17:38;743.30;1305.60
55719;DHT22;41623;46.104;19.656;2023-07-13T00:20:05;743.30;1305.60
55719;DHT22;41623;46.104;19.656;2023-07-13T00:22:32;743.30;1331.20
55719;DHT22;41623;46.104;19.656;2023-07-13T00:24:58;743.30;1331.20
55719;DHT22;41623;46.104;19.656;2023-07-13T00:27:24;743.30;1331.20
55719;DHT22;41623;46.104;19.656;2023-07-13T00:29:52;743.20;1331.20
55719;DHT22;41623;46.104;19.656;2023-07-13T00:32:19;743.10;1331.20
55719;DHT22;41623;46.104;19.656;2023-07-13T00:34:45;743.10;1356.80
55719;DHT22;41623;46.104;19.656;2023-07-13T00:37:11;743.10;1331.20
55719;DHT22;41623;46.104;19.656;2023-07-13T00:39:36;743.20;1331.20
55719;DHT22;41623;46.104;19.656;2023-07-13T00:42:03;743.20;1331.20
55719;DHT22;41623;46.104;19.656;2023-07-13T00:44:29;743.30;1331.20
55719;DHT22;41623;46.104;19.656;2023-07-13T00:46:56;743.30;1331.20
55719;DHT22;41623;46.104;19.656;2023-07-13T00:52:05;743.30;1331.20
55719;DHT22;41623;46.104;19.656;2023-07-13T00:54:38;743.30;1331.20
55719;DHT22;41623;46.104;19.656;2023-07-13T00:57:09;743.30;1331.20
55719;DHT22;41623;46.104;19.656;2023-07-13T00:59:37;743.30;1331.20
55719;DHT22;41623;46.104;19.656;2023-07-13T01:02:06;743.30;1331.20
55719;DHT22;41623;46.104;19.656;2023-07-13T01:04:32;743.30;1331.20
55719;DHT22;41623;46.104;19.656;2023-07-13T01:06:58;743.30;1331.20
55719;DHT22;41623;46.104;19.656;2023-07-13T01:09:27;743.30;1331.20
55719;DHT22;41623;46.104;19.656;2023-07-13T01:11:53;743.30;1331.20
55719;DHT22;41623;46.104;19.656;2023-07-13T01:14:19;743.30;1331.20
55719;DHT22;41623;46.104;19.656;2023-07-13T01:16:46;743.30;1331.20
55719;DHT22;41623;46.104;19.656;2023-07-13T01:19:35;743.30;1331.20
55719;DHT22;41623;46.104;19.656;2023-07-13T01:22:07;743.30;1331.20
55719;DHT22;41623;46.104;19.656;2023-07-13T01:24:35;743.30;1331.20
55719;DHT22;41623;46.104;19.656;2023-07-13T01:27:02;743.30;1331.20
55719;DHT22;41623;46.104;19.656;2023-07-13T01:29:28;743.30;1331.20
55719;DHT22;41623;46.104;19.656;2023-07-13T01:31:53;743.30;1331.20
55719;DHT22;41623;46.104;19.656;2023-07-13T01:34:19;743.30;1305.60
55719;DHT22;41623;46.104;19.656;2023-07-13T01:36:45;743.30;1305.60
55719;DHT22;41623;46.104;19.656;2023-07-13T01:39:10;743.30;1305.60
55719;DHT22;41623;46.104;19.656;2023-07-13T01:41:36;743.30;1305.60
55719;DHT22;41623;46.104;19.656;2023-07-13T01:44:02;743.30;1331.20
55719;DHT22;41623;46.104;19.656;2023-07-13T01:46:28;743.30;1331.20
55719;DHT22;41623;46.104;19.656;2023-07-13T01:48:53;743.30;1331.20
55719;DHT22;41623;46.104;19.656;2023-07-13T01:51:19;743.20;1331.20
55719;DHT22;41623;46.104;19.656;2023-07-13T01:53:54;743.20;1331.20
55719;DHT22;41623;46.104;19.656;2023-07-13T01:56:20;743.20;1331.20
55719;DHT22;41623;46.104;19.656;2023-07-13T01:58:46;743.20;1331.20
55719;DHT22;41623;46.104;19.656;2023-07-13T02:01:12;743.20;1305.60
55719;DHT22;41623;46.104;19.656;2023-07-13T02:03:37;743.30;1331.20
55719;DHT22;41623;46.104;19.656;2023-07-13T02:06:03;743.30;1305.60
55719;DHT22;41623;46.104;19.656;2023-07-13T02:08:29;743.30;1305.60
55719;DHT22;41623;46.104;19.656;2023-07-13T02:10:55;743.30;1305.60
55719;DHT22;41623;46.104;19.656;2023-07-13T02:13:20;743.30;1331.20
55719;DHT22;41623;46.104;19.656;2023-07-13T02:15:50;743.30;1331.20
55719;DHT22;41623;46.104;19.656;2023-07-13T02:18:16;743.30;1331.20
55719;DHT22;41623;46.104;19.656;2023-07-13T02:20:43;743.30;1331.20
55719;DHT22;41623;46.104;19.656;2023-07-13T02:23:09;743.30;1305.60
55719;DHT22;41623;46.104;19.656;2023-07-13T02:25:35;743.30;1305.60
55719;DHT22;41623;46.104;19.656;2023-07-13T02:28:01;743.30;1305.60
55719;DHT22;41623;46.104;19.656;2023-07-13T02:30:27;743.30;1305.60
55719;DHT22;41623;46.104;19.656;2023-07-13T02:32:55;743.30;1305.60
55719;DHT22;41623;46.104;19.656;2023-07-13T02:35:21;743.30;1331.20
55719;DHT22;41623;46.104;19.656;2023-07-13T02:37:47;743.30;1331.20
55719;DHT22;41623;46.104;19.656;2023-07-13T02:40:13;743.30;1331.20
55719;DHT22;41623;46.104;19.656;2023-07-13T02:42:40;743.30;1331.20
55719;DHT22;41623;46.104;19.656;2023-07-13T02:45:07;743.30;1305.60
55719;DHT22;41623;46.104;19.656;2023-07-13T02:47:33;743.30;1305.60
55719;DHT22;41623;46.104;19.656;2023-07-13T02:49:59;743.30;1305.60
55719;DHT22;41623;46.104;19.656;2023-07-13T02:52:25;743.30;1331.20
55719;DHT22;41623;46.104;19.656;2023-07-13T02:54:51;743.30;1331.20
55719;DHT22;41623;46.104;19.656;2023-07-13T02:57:17;743.30;1305.60
55719;DHT22;41623;46.104;19.656;2023-07-13T02:59:42;743.30;1305.60
55719;DHT22;41623;46.104;19.656;2023-07-13T03:02:08;743.30;1305.60
55719;DHT22;41623;46.104;19.656;2023-07-13T03:04:36;743.30;1305.60
55719;DHT22;41623;46.104;19.656;2023-07-13T03:07:02;743.30;1305.60
55719;DHT22;41623;46.104;19.656;2023-07-13T03:09:28;743.30;1305.60
55719;DHT22;41623;46.104;19.656;2023-07-13T03:11:55;743.30;1331.20
55719;DHT22;41623;46.104;19.656;2023-07-13T03:14:22;743.30;1331.20
55719;DHT22;41623;46.104;19.656;2023-07-13T03:16:48;743.30;1331.20
55719;DHT22;41623;46.104;19.656;2023-07-13T03:19:15;743.30;1331.20
55719;DHT22;41623;46.104;19.656;2023-07-13T03:21:41;743.30;1331.20
55719;DHT22;41623;46.104;19.656;2023-07-13T03:24:07;743.30;1331.20
55719;DHT22;41623;46.104;19.656;2023-07-13T03:26:32;743.30;1331.20
55719;DHT22;41623;46.104;19.656;2023-07-13T03:28:58;743.30;1331.20
55719;DHT22;41623;46.104;19.656;2023-07-13T03:31:28;743.30;1331.20
55719;DHT22;41623;46.104;19.656;2023-07-13T03:33:55;743.30;1331.20
55719;DHT22;41623;46.104;19.656;2023-07-13T03:36:25;743.30;1331.20
55719;DHT22;41623;46.104;19.656;2023-07-13T03:38:54;743.30;1331.20
55719;DHT22;41623;46.104;19.656;2023-07-13T03:41:21;743.30;1331.20
55719;DHT22;41623;46.104;19.656;2023-07-13T03:43:48;743.20;1331.20
55719;DHT22;41623;46.104;19.656;2023-07-13T03:46:14;743.10;1331.20
55719;DHT22;41623;46.104;19.656;2023-07-13T03:48:42;743.20;1331.20
55719;DHT22;41623;46.104;19.656;2023-07-13T03:51:09;743.20;1331.20
55719;DHT22;41623;46.104;19.656;2023-07-13T03:53:38;743.20;1331.20
55719;DHT22;41623;46.104;19.656;2023-07-13T03:56:05;743.20;1331.20
55719;DHT22;41623;46.104;19.656;2023-07-13T03:58:41;743.10;1331.20
55719;DHT22;41623;46.104;19.656;2023-07-13T04:01:09;743.10;1331.20
55719;DHT22;41623;46.104;19.656;2023-07-13T04:03:36;743.10;1331.20
55719;DHT22;41623;46.104;19.656;2023-07-13T04:06:07;743.20;1331.20
55719;DHT22;41623;46.104;19.656;2023-07-13T04:08:35;743.20;1331.20
55719;DHT22;41623;46.104;19.656;2023-07-13T04:11:02;743.20;1331.20
55719;DHT22;41623;46.104;19.656;2023-07-13T04:13:29;743.20;1331.20
55719;DHT22;41623;46.104;19.656;2023-07-13T04:15:55;743.20;1331.20
55719;DHT22;41623;46.104;19.656;2023-07-13T04:18:21;743.20;1331.20
55719;DHT22;41623;46.104;19.656;2023-07-13T04:20:48;743.20;1331.20
55719;DHT22;41623;46.104;19.656;2023-07-13T04:23:15;743.20;1331.20
55719;DHT22;41623;46.104;19.656;2023-07-13T04:25:46;743.20;1356.80
55719;DHT22;41623;46.104;19.656;2023-07-13T04:28:15;743.20;1356.80
55719;DHT22;41623;46.104;19.656;2023-07-13T04:30:43;743.20;1356.80
55719;DHT22;41623;46.104;19.656;2023-07-13T04:33:10;743.20;1356.80
55719;DHT22;41623;46.104;19.656;2023-07-13T04:35:35;743.20;1356.80
55719;DHT22;41623;46.104;19.656;2023-07-13T04:38:03;743.20;1356.80
55719;DHT22;41623;46.104;19.656;2023-07-13T04:40:29;743.20;1356.80
55719;DHT22;41623;46.104;19.656;2023-07-13T04:42:55;743.10;1356.80
55719;DHT22;41623;46.104;19.656;2023-07-13T04:45:22;743.10;1356.80
55719;DHT22;41623;46.104;19.656;2023-07-13T04:47:49;743.10;1356.80
55719;DHT22;41623;46.104;19.656;2023-07-13T04:50:15;743.10;1356.80
55719;DHT22;41623;46.104;19.656;2023-07-13T04:52:45;743.10;1356.80
55719;DHT22;41623;46.104;19.656;2023-07-13T04:55:11;743.10;1356.80
55719;DHT22;41623;46.104;19.656;2023-07-13T04:57:37;743.10;1382.40
55719;DHT22;41623;46.104;19.656;2023-07-13T05:00:04;743.10;1356.80
55719;DHT22;41623;46.104;19.656;2023-07-13T05:02:34;743.00;1382.40
55719;DHT22;41623;46.104;19.656;2023-07-13T05:05:00;743.00;1382.40
55719;DHT22;41623;46.104;19.656;2023-07-13T05:07:26;743.00;1382.40
55719;DHT22;41623;46.104;19.656;2023-07-13T05:09:52;743.00;1382.40
55719;DHT22;41623;46.104;19.656;2023-07-13T05:12:18;743.10;1382.40
55719;DHT22;41623;46.104;19.656;2023-07-13T05:14:44;743.00;1408.00
55719;DHT22;41623;46.104;19.656;2023-07-13T05:17:10;743.00;1408.00
55719;DHT22;41623;46.104;19.656;2023-07-13T05:19:36;742.90;1408.00
55719;DHT22;41623;46.104;19.656;2023-07-13T05:22:02;742.80;1408.00
55719;DHT22;41623;46.104;19.656;2023-07-13T05:24:28;742.80;1408.00
55719;DHT22;41623;46.104;19.656;2023-07-13T05:26:54;742.60;1433.60
55719;DHT22;41623;46.104;19.656;2023-07-13T05:29:21;742.60;1408.00
55719;DHT22;41623;46.104;19.656;2023-07-13T05:53:43;717.50;1356.80
55719;DHT22;41623;46.104;19.656;2023-07-13T05:56:09;717.20;1356.80
55719;DHT22;41623;46.104;19.656;2023-07-13T05:58:35;717.10;1382.40
55719;DHT22;41623;46.104;19.656;2023-07-13T06:01:08;717.10;1382.40
55719;DHT22;41623;46.104;19.656;2023-07-13T06:03:35;717.00;1408.00
55719;DHT22;41623;46.104;19.656;2023-07-13T06:06:01;716.90;1408.00
55719;DHT22;41623;46.104;19.656;2023-07-13T06:08:28;716.90;1433.60
55719;DHT22;41623;46.104;19.656;2023-07-13T06:10:54;716.80;1433.60
55719;DHT22;41623;46.104;19.656;2023-07-13T06:13:20;692.10;1433.60
55719;DHT22;41623;46.104;19.656;2023-07-13T06:15:49;692.10;1433.60
55719;DHT22;41623;46.104;19.656;2023-07-13T06:18:15;716.80;1484.80
55719;DHT22;41623;46.104;19.656;2023-07-13T06:20:41;692.10;1459.20
55719;DHT22;41623;46.104;19.656;2023-07-13T06:23:07;691.90;1484.80
55719;DHT22;41623;46.104;19.656;2023-07-13T07:29:02;717.40;1433.60
55719;DHT22;41623;46.104;19.656;2023-07-13T07:31:28;717.20;1433.60
55719;DHT22;41623;46.104;19.656;2023-07-13T07:33:54;717.20;1433.60
55719;DHT22;41623;46.104;19.656;2023-07-13T07:36:19;717.20;1433.60
55719;DHT22;41623;46.104;19.656;2023-07-13T07:38:45;717.20;1433.60
55719;DHT22;41623;46.104;19.656;2023-07-13T07:41:12;717.20;1433.60
55719;DHT22;41623;46.104;19.656;2023-07-13T07:43:38;717.20;1433.60
55719;DHT22;41623;46.104;19.656;2023-07-13T07:46:04;717.30;1433.60
55719;DHT22;41623;46.104;19.656;2023-07-13T07:48:30;717.40;1433.60
55719;DHT22;41623;46.104;19.656;2023-07-13T07:50:56;717.40;1433.60
55719;DHT22;41623;46.104;19.656;2023-07-13T07:53:21;717.40;1433.60
55719;DHT22;41623;46.104;19.656;2023-07-13T07:55:48;717.40;1433.60
55719;DHT22;41623;46.104;19.656;2023-07-13T07:58:14;717.40;1433.60
55719;DHT22;41623;46.104;19.656;2023-07-13T08:00:40;717.40;1433.60
55719;DHT22;41623;46.104;19.656;2023-07-13T08:03:06;717.50;1408.00
55719;DHT22;41623;46.104;19.656;2023-07-13T08:05:35;717.50;1408.00
55719;DHT22;41623;46.104;19.656;2023-07-13T08:08:04;717.50;1408.00
55719;DHT22;41623;46.104;19.656;2023-07-13T08:10:29;717.50;1408.00
55719;DHT22;41623;46.104;19.656;2023-07-13T08:12:55;717.50;1433.60
55719;DHT22;41623;46.104;19.656;2023-07-13T08:15:21;717.50;1408.00
55719;DHT22;41623;46.104;19.656;2023-07-13T08:17:48;717.60;1382.40
55719;DHT22;41623;46.104;19.656;2023-07-13T08:20:14;717.60;1382.40
55719;DHT22;41623;46.104;19.656;2023-07-13T08:26:02;717.70;1382.40
55719;DHT22;41623;46.104;19.656;2023-07-13T08:31:51;717.70;1382.40
55719;DHT22;41623;46.104;19.656;2023-07-13T08:34:17;742.40;1536.00
55719;DHT22;41623;46.104;19.656;2023-07-13T08:36:43;742.40;1382.40
55719;DHT22;41623;46.104;19.656;2023-07-13T08:39:08;742.40;1382.40
55719;DHT22;41623;46.104;19.656;2023-07-13T08:41:34;742.40;1382.40
55719;DHT22;41623;46.104;19.656;2023-07-13T08:44:02;742.40;1408.00
55719;DHT22;41623;46.104;19.656;2023-07-13T08:49:03;742.50;1382.40
55719;DHT22;41623;46.104;19.656;2023-07-13T08:51:46;742.60;1356.80
55719;DHT22;41623;46.104;19.656;2023-07-13T08:54:31;742.70;1356.80
55719;DHT22;41623;46.104;19.656;2023-07-13T08:56:59;742.70;1356.80
55719;DHT22;41623;46.104;19.656;2023-07-13T08:59:29;742.80;1331.20
55719;DHT22;41623;46.104;19.656;2023-07-13T09:02:16;742.80;1331.20
55719;DHT22;41623;46.104;19.656;2023-07-13T09:05:25;742.90;1331.20
55719;DHT22;41623;46.104;19.656;2023-07-13T09:08:02;742.90;1305.60
55719;DHT22;41623;46.104;19.656;2023-07-13T09:10:33;743.00;1305.60
55719;DHT22;41623;46.104;19.656;2023-07-13T09:15:53;743.00;1305.60
55719;DHT22;41623;46.104;19.656;2023-07-13T09:18:30;743.10;1305.60
55719;DHT22;41623;46.104;19.656;2023-07-13T09:23:28;743.00;1331.20
55719;DHT22;41623;46.104;19.656;2023-07-13T09:26:11;743.00;1331.20
55719;DHT22;41623;46.104;19.656;2023-07-13T09:28:46;743.00;1331.20
55719;DHT22;41623;46.104;19.656;2023-07-13T09:31:24;743.00;1331.20
55719;DHT22;41623;46.104;19.656;2023-07-13T09:33:51;742.90;1331.20
55719;DHT22;41623;46.104;19.656;2023-07-13T09:39:02;743.00;1331.20
55719;DHT22;41623;46.104;19.656;2023-07-13T09:41:46;743.00;1331.20
55719;DHT22;41623;46.104;19.656;2023-07-13T09:44:18;743.00;1331.20
55719;DHT22;41623;46.104;19.656;2023-07-13T09:46:55;743.10;1305.60
55719;DHT22;41623;46.104;19.656;2023-07-13T09:49:33;743.10;1305.60
55719;DHT22;41623;46.104;19.656;2023-07-13T09:52:05;743.20;1305.60
55719;DHT22;41623;46.104;19.656;2023-07-13T09:54:34;743.20;1305.60
55719;DHT22;41623;46.104;19.656;2023-07-13T09:57:02;743.20;1254.40
55719;DHT22;41623;46.104;19.656;2023-07-13T09:59:40;743.30;1280.00
55719;DHT22;41623;46.104;19.656;2023-07-13T10:02:29;743.30;1305.60
55719;DHT22;41623;46.104;19.656;2023-07-13T10:05:04;743.30;1305.60
55719;DHT22;41623;46.104;19.656;2023-07-13T10:07:32;743.20;1305.60
55719;DHT22;41623;46.104;19.656;2023-07-13T10:10:00;743.10;1305.60
55719;DHT22;41623;46.104;19.656;2023-07-13T10:12:28;743.10;1305.60
55719;DHT22;41623;46.104;19.656;2023-07-13T10:14:56;743.10;1305.60
55719;DHT22;41623;46.104;19.656;2023-07-13T10:17:32;743.10;1331.20
55719;DHT22;41623;46.104;19.656;2023-07-13T10:20:04;743.10;1331.20
55719;DHT22;41623;46.104;19.656;2023-07-13T10:23:01;743.10;1331.20
55719;DHT22;41623;46.104;19.656;2023-07-13T10:25:32;743.10;1331.20
55719;DHT22;41623;46.104;19.656;2023-07-13T10:28:23;743.10;1305.60
55719;DHT22;41623;46.104;19.656;2023-07-13T10:30:53;743.10;1331.20
55719;DHT22;41623;46.104;19.656;2023-07-13T10:33:21;743.10;1331.20
55719;DHT22;41623;46.104;19.656;2023-07-13T10:35:50;743.10;1331.20
55719;DHT22;41623;46.104;19.656;2023-07-13T10:38:22;743.10;1331.20
55719;DHT22;41623;46.104;19.656;2023-07-13T10:41:06;743.10;1305.60
55719;DHT22;41623;46.104;19.656;2023-07-13T10:43:37;743.20;1305.60
55719;DHT22;41623;46.104;19.656;2023-07-13T10:46:06;743.20;1305.60
55719;DHT22;41623;46.104;19.656;2023-07-13T10:48:34;743.20;1305.60
55719;DHT22;41623;46.104;19.656;2023-07-13T10:51:03;743.20;1305.60
55719;DHT22;41623;46.104;19.656;2023-07-13T10:53:33;743.20;1305.60
55719;DHT22;41623;46.104;19.656;2023-07-13T10:56:27;743.20;1305.60
55719;DHT22;41623;46.104;19.656;2023-07-13T11:04:29;743.30;1254.40
55719;DHT22;41623;46.104;19.656;2023-07-13T11:07:17;743.30;1280.00
55719;DHT22;41623;46.104;19.656;2023-07-13T11:09:44;743.30;1280.00
55719;DHT22;41623;46.104;19.656;2023-07-13T11:36:06;743.30;1305.60
55719;DHT22;41623;46.104;19.656;2023-07-13T11:38:39;743.30;1305.60
55719;DHT22;41623;46.104;19.656;2023-07-13T11:44:13;743.30;1305.60
55719;DHT22;41623;46.104;19.656;2023-07-13T11:46:55;743.30;1305.60
55719;DHT22;41623;46.104;19.656;2023-07-13T11:49:23;743.30;1305.60
55719;DHT22;41623;46.104;19.656;2023-07-13T11:51:51;743.30;1305.60
55719;DHT22;41623;46.104;19.656;2023-07-13T11:54:47;743.30;1305.60
55719;DHT22;41623;46.104;19.656;2023-07-13T11:57:47;743.30;1305.60
55719;DHT22;41623;46.104;19.656;2023-07-13T12:00:16;743.30;1305.60
55719;DHT22;41623;46.104;19.656;2023-07-13T12:02:48;743.30;1305.60
55719;DHT22;41623;46.104;19.656;2023-07-13T12:05:17;743.30;1305.60
55719;DHT22;41623;46.104;19.656;2023-07-13T12:07:43;743.30;1305.60
55719;DHT22;41623;46.104;19.656;2023-07-13T12:10:23;743.30;1305.60
55719;DHT22;41623;46.104;19.656;2023-07-13T12:15:17;743.30;1331.20
55719;DHT22;41623;46.104;19.656;2023-07-13T12:17:43;743.30;1305.60
55719;DHT22;41623;46.104;19.656;2023-07-13T12:20:25;743.30;1331.20
55719;DHT22;41623;46.104;19.656;2023-07-13T12:22:51;743.30;1331.20
55719;DHT22;41623;46.104;19.656;2023-07-13T12:25:19;743.30;1331.20
55719;DHT22;41623;46.104;19.656;2023-07-13T12:27:50;743.30;1331.20
55719;DHT22;41623;46.104;19.656;2023-07-13T12:30:36;743.30;1305.60
55719;DHT22;41623;46.104;19.656;2023-07-13T12:33:07;743.30;1331.20
55719;DHT22;41623;46.104;19.656;2023-07-13T12:35:45;768.00;1305.60
55719;DHT22;41623;46.104;19.656;2023-07-13T12:38:12;743.30;1331.20
55719;DHT22;41623;46.104;19.656;2023-07-13T12:40:38;743.30;1305.60
55719;DHT22;41623;46.104;19.656;2023-07-13T12:43:11;743.30;1331.20
55719;DHT22;41623;46.104;19.656;2023-07-13T12:45:38;768.00;1331.20
55719;DHT22;41623;46.104;19.656;2023-07-13T12:48:14;743.30;1331.20
55719;DHT22;41623;46.104;19.656;2023-07-13T12:50:43;743.30;1331.20
55719;DHT22;41623;46.104;19.656;2023-07-13T12:53:17;743.30;1331.20
55719;DHT22;41623;46.104;19.656;2023-07-13T12:55:53;743.30;1331.20
55719;DHT22;41623;46.104;19.656;2023-07-13T12:58:31;768.10;1331.20
55719;DHT22;41623;46.104;19.656;2023-07-13T13:01:01;768.00;1305.60
55719;DHT22;41623;46.104;19.656;2023-07-13T20:41:21;742.80;1254.40
55719;DHT22;41623;46.104;19.656;2023-07-13T20:43:48;742.60;1280.00
55719;DHT22;41623;46.104;19.656;2023-07-13T20:46:16;717.70;1331.20
55719;DHT22;41623;46.104;19.656;2023-07-13T20:48:44;717.40;1408.00
